Time,TemperatureF,DewpointF,PressureIn,WindDirection,WindDirectionDegrees,WindSpeedMPH,WindSpeedGustMPH,Humidity,HourlyPrecipIn,Conditions,Clouds,dailyrainin,SolarRadiationWatts/m^2,SoftwareType,DateUTC
2013-06-22 00:14:00,68.3,66.0,30.00,WNW,292,0.0,0.0,91,0.00,,,0.00,0,weatherlink.com 1.10,2013-06-22 04:14:00,
2013-06-22 00:29:00,68.1,65.0,29.99,WNW,292,0.0,0.0,91,0.00,,,0.00,0,weatherlink.com 1.10,2013-06-22 04:29:00,
2013-06-22 00:44:00,67.8,66.0,30.00,WNW,292,0.0,1.0,92,0.00,,,0.00,0,weatherlink.com 1.10,2013-06-22 04:44:00,
2013-06-22 00:59:00,67.6,65.0,29.99,WNW,292,0.0,1.0,92,0.00,,,0.00,0,weatherlink.com 1.10,2013-06-22 04:59:00,
2013-06-22 01:14:00,67.5,65.0,29.99,WNW,292,0.0,1.0,92,0.00,,,0.00,0,weatherlink.com 1.10,2013-06-22 05:14:00,
2013-06-22 01:29:00,67.6,65.0,29.99,WNW,292,3.0,3.0,91,0.00,,,0.00,0,weatherlink.com 1.10,2013-06-22 05:29:00,
2013-06-22 01:44:00,68.0,65.0,29.98,WNW,292,3.0,3.0,90,0.00,,,0.00,0,weatherlink.com 1.10,2013-06-22 05:44:00,
2013-06-22 01:59:00,68.2,65.0,29.97,West,266,1.0,6.0,90,0.00,,,0.00,0,weatherlink.com 1.10,2013-06-22 05:59:00,
2013-06-22 02:14:00,68.3,65.0,29.96,South,174,3.0,6.0,90,0.00,,,0.00,0,weatherlink.com 1.10,2013-06-22 06:14:00,
2013-06-22 02:29:00,68.4,65.0,29.96,South,173,2.0,6.0,90,0.00,,,0.00,0,weatherlink.com 1.10,2013-06-22 06:29:00,
2013-06-22 02:44:00,68.6,65.0,29.95,SSW,193,4.0,8.0,89,0.00,,,0.00,0,weatherlink.com 1.10,2013-06-22 06:44:00,
2013-06-22 02:59:00,68.9,66.0,29.94,South,181,3.0,8.0,89,0.00,,,0.00,0,weatherlink.com 1.10,2013-06-22 06:59:00,
2013-06-22 03:14:00,69.2,66.0,29.94,SSE,166,4.0,8.0,88,0.00,,,0.00,0,weatherlink.com 1.10,2013-06-22 07:14:00,
2013-06-22 03:29:00,69.6,66.0,29.94,South,187,6.0,10.0,87,0.00,,,0.00,0,weatherlink.com 1.10,2013-06-22 07:29:00,
2013-06-22 03:44:00,70.2,66.0,29.94,SSW,193,8.0,9.0,86,0.00,,,0.00,0,weatherlink.com 1.10,2013-06-22 07:44:00,
2013-06-22 03:59:00,70.2,66.0,29.93,South,187,5.0,7.0,86,0.00,,,0.00,0,weatherlink.com 1.10,2013-06-22 07:59:00,
2013-06-22 04:14:00,69.8,66.0,29.92,South,191,4.0,9.0,86,0.00,,,0.00,0,weatherlink.com 1.10,2013-06-22 08:14:00,
2013-06-22 04:29:00,69.7,66.0,29.93,SW,235,2.0,10.0,87,0.00,,,0.00,0,weatherlink.com 1.10,2013-06-22 08:29:00,
2013-06-22 04:44:00,69.9,66.0,29.92,SW,226,7.0,9.0,87,0.00,,,0.00,0,weatherlink.com 1.10,2013-06-22 08:44:00,
2013-06-22 04:59:00,70.0,66.0,29.93,SSW,206,2.0,7.0,86,0.00,,,0.00,0,weatherlink.com 1.10,2013-06-22 08:59:00,
2013-06-22 05:14:00,69.9,66.0,29.94,SSW,195,3.0,7.0,87,0.00,,,0.00,0,weatherlink.com 1.10,2013-06-22 09:14:00,
2013-06-22 05:29:00,70.1,66.0,29.94,SSW,204,4.0,7.0,87,0.00,,,0.00,0,weatherlink.com 1.10,2013-06-22 09:29:00,
2013-06-22 05:44:00,70.0,66.0,29.94,SSW,204,4.0,6.0,88,0.00,,,0.00,0,weatherlink.com 1.10,2013-06-22 09:44:00,
2013-06-22 05:59:00,70.0,66.0,29.94,SSW,206,3.0,8.0,88,0.00,,,0.00,0,weatherlink.com 1.10,2013-06-22 09:59:00,
2013-06-22 06:14:00,70.1,67.0,29.94,SW,229,2.0,9.0,89,0.00,,,0.00,0,weatherlink.com 1.10,2013-06-22 10:14:00,
2013-06-22 06:30:00,70.0,67.0,29.93,SSW,210,3.0,8.0,90,0.00,,,0.00,11,weatherlink.com 1.10,2013-06-22 10:30:00,
2013-06-22 06:44:00,70.2,67.0,29.94,SW,234,3.0,7.0,90,0.00,,,0.00,25,weatherlink.com 1.10,2013-06-22 10:44:00,
2013-06-22 07:00:00,70.5,68.0,29.95,SW,226,1.0,5.0,90,0.00,,,0.00,39,weatherlink.com 1.10,2013-06-22 11:00:00,
2013-06-22 07:15:00,70.8,68.0,29.95,SW,226,2.0,5.0,90,0.00,,,0.00,56,weatherlink.com 1.10,2013-06-22 11:15:00,
2013-06-22 07:30:00,71.3,68.0,29.96,SW,231,5.0,8.0,90,0.00,,,0.00,76,weatherlink.com 1.10,2013-06-22 11:30:00,
2013-06-22 07:45:00,71.7,68.0,29.97,SW,235,1.0,8.0,89,0.00,,,0.00,91,weatherlink.com 1.10,2013-06-22 11:45:00,
2013-06-22 08:00:00,72.1,69.0,29.99,WSW,258,0.0,6.0,89,0.00,,,0.00,109,weatherlink.com 1.10,2013-06-22 12:00:00,
2013-06-22 08:15:00,72.3,69.0,29.98,West,259,5.0,5.0,88,0.00,,,0.00,130,weatherlink.com 1.10,2013-06-22 12:15:00,
2013-06-22 08:30:00,72.6,69.0,29.99,West,263,1.0,5.0,88,0.00,,,0.00,148,weatherlink.com 1.10,2013-06-22 12:30:00,
2013-06-22 08:45:00,73.0,69.0,29.99,West,261,3.0,6.0,88,0.00,,,0.00,176,weatherlink.com 1.10,2013-06-22 12:45:00,
2013-06-22 09:00:00,73.3,70.0,29.98,WSW,255,1.0,6.0,88,0.00,,,0.00,193,weatherlink.com 1.10,2013-06-22 13:00:00,
2013-06-22 09:15:00,73.6,70.0,29.99,SW,235,4.0,7.0,88,0.00,,,0.00,225,weatherlink.com 1.10,2013-06-22 13:15:00,
2013-06-22 09:30:00,74.1,70.0,30.00,WSW,238,3.0,7.0,87,0.00,,,0.00,260,weatherlink.com 1.10,2013-06-22 13:30:00,
2013-06-22 09:45:00,74.6,70.0,30.00,West,262,5.0,8.0,86,0.00,,,0.00,309,weatherlink.com 1.10,2013-06-22 13:45:00,
2013-06-22 10:00:00,75.1,70.0,29.98,SW,220,6.0,9.0,85,0.00,,,0.00,318,weatherlink.com 1.10,2013-06-22 14:00:00,
2013-06-22 10:15:00,75.5,71.0,29.98,WSW,240,3.0,10.0,85,0.00,,,0.00,309,weatherlink.com 1.10,2013-06-22 14:15:00,
2013-06-22 10:30:00,75.7,71.0,29.98,SW,221,6.0,10.0,85,0.00,,,0.00,299,weatherlink.com 1.10,2013-06-22 14:30:00,
2013-06-22 10:45:00,76.1,71.0,29.98,WSW,243,6.0,8.0,85,0.00,,,0.00,294,weatherlink.com 1.10,2013-06-22 14:45:00,
2013-06-22 11:00:00,76.5,71.0,29.98,West,274,2.0,8.0,84,0.00,,,0.00,287,weatherlink.com 1.10,2013-06-22 15:00:00,
2013-06-22 11:15:00,77.0,72.0,29.99,WSW,243,5.0,8.0,83,0.00,,,0.00,283,weatherlink.com 1.10,2013-06-22 15:15:00,
2013-06-22 11:30:00,76.8,71.0,29.99,WSW,256,6.0,9.0,83,0.00,,,0.00,297,weatherlink.com 1.10,2013-06-22 15:30:00,
2013-06-22 11:45:00,77.3,71.0,29.99,SW,232,6.0,11.0,82,0.00,,,0.00,327,weatherlink.com 1.10,2013-06-22 15:45:00,
2013-06-22 12:00:00,77.9,72.0,29.98,West,264,0.0,7.0,82,0.00,,,0.00,360,weatherlink.com 1.10,2013-06-22 16:00:00,
2013-06-22 12:16:00,78.5,73.0,29.98,SW,227,0.0,9.0,82,0.00,,,0.00,378,weatherlink.com 1.10,2013-06-22 16:16:00,
2013-06-22 12:31:00,79.0,73.0,29.98,SW,233,3.0,8.0,82,0.00,,,0.00,355,weatherlink.com 1.10,2013-06-22 16:31:00,
2013-06-22 12:46:00,79.4,73.0,29.98,SW,232,1.0,8.0,81,0.00,,,0.00,334,weatherlink.com 1.10,2013-06-22 16:46:00,
2013-06-22 13:01:00,80.3,74.0,29.96,West,272,2.0,6.0,80,0.00,,,0.00,765,weatherlink.com 1.10,2013-06-22 17:01:00,
2013-06-22 13:16:00,81.4,74.0,29.96,WSW,244,5.0,6.0,78,0.00,,,0.00,745,weatherlink.com 1.10,2013-06-22 17:16:00,
2013-06-22 13:31:00,82.3,74.0,29.96,SSW,193,5.0,8.0,76,0.00,,,0.00,988,weatherlink.com 1.10,2013-06-22 17:31:00,
2013-06-22 13:46:00,84.0,74.0,29.98,WSW,243,8.0,11.0,72,0.00,,,0.00,1009,weatherlink.com 1.10,2013-06-22 17:46:00,
2013-06-22 14:01:00,83.7,75.0,29.98,SW,222,1.0,11.0,75,0.00,,,0.00,403,weatherlink.com 1.10,2013-06-22 18:01:00,
2013-06-22 14:16:00,84.5,74.0,29.96,SSW,212,2.0,9.0,71,0.00,,,0.00,738,weatherlink.com 1.10,2013-06-22 18:16:00,
2013-06-22 14:31:00,83.9,72.0,29.96,SSW,193,3.0,15.0,68,0.00,,,0.00,434,weatherlink.com 1.10,2013-06-22 18:31:00,
2013-06-22 14:46:00,84.7,72.0,29.96,SW,228,4.0,8.0,65,0.00,,,0.00,784,weatherlink.com 1.10,2013-06-22 18:46:00,
2013-06-22 15:01:00,85.7,71.0,29.94,WSW,249,6.0,7.0,61,0.00,,,0.00,670,weatherlink.com 1.10,2013-06-22 19:01:00,
2013-06-22 15:16:00,86.3,71.0,29.95,West,281,7.0,8.0,61,0.00,,,0.00,250,weatherlink.com 1.10,2013-06-22 19:16:00,
2013-06-22 15:31:00,84.5,72.0,29.94,West,274,7.0,11.0,67,0.00,,,0.00,134,weatherlink.com 1.10,2013-06-22 19:31:00,
2013-06-22 15:46:00,83.7,73.0,29.94,WSW,253,1.0,6.0,70,0.00,,,0.00,98,weatherlink.com 1.10,2013-06-22 19:46:00,
2013-06-22 16:01:00,83.0,74.0,29.93,WNW,286,3.0,8.0,73,0.00,,,0.00,93,weatherlink.com 1.10,2013-06-22 20:01:00,
2013-06-22 16:16:00,82.3,74.0,29.91,West,276,3.0,7.0,76,0.00,,,0.00,79,weatherlink.com 1.10,2013-06-22 20:16:00,
2013-06-22 16:31:00,81.4,74.0,29.91,West,270,0.0,6.0,77,0.00,,,0.00,76,weatherlink.com 1.10,2013-06-22 20:31:00,
2013-06-22 16:46:00,80.6,74.0,29.90,West,269,2.0,4.0,79,0.00,,,0.00,90,weatherlink.com 1.10,2013-06-22 20:46:00,
2013-06-22 17:01:00,80.3,74.0,29.89,SSE,162,6.0,6.0,81,0.00,,,0.00,113,weatherlink.com 1.10,2013-06-22 21:01:00,
2013-06-22 17:16:00,79.2,73.0,29.89,SSE,152,2.0,9.0,80,0.00,,,0.00,137,weatherlink.com 1.10,2013-06-22 21:16:00,
2013-06-22 17:31:00,78.6,72.0,29.89,South,171,2.0,6.0,79,0.00,,,0.00,153,weatherlink.com 1.10,2013-06-22 21:31:00,
2013-06-22 17:46:00,78.4,72.0,29.88,SE,129,3.0,6.0,80,0.00,,,0.00,135,weatherlink.com 1.10,2013-06-22 21:46:00,
2013-06-22 18:01:00,77.4,71.0,29.88,SE,145,0.0,7.0,81,0.00,,,0.00,120,weatherlink.com 1.10,2013-06-22 22:01:00,
2013-06-22 18:16:00,77.1,70.0,29.90,SSE,154,5.0,6.0,79,0.00,,,0.00,120,weatherlink.com 1.10,2013-06-22 22:16:00,
2013-06-22 18:31:00,76.9,69.0,29.91,South,180,3.0,5.0,77,0.00,,,0.00,123,weatherlink.com 1.10,2013-06-22 22:31:00,
2013-06-22 18:46:00,76.5,69.0,29.91,SE,130,0.0,7.0,77,0.00,,,0.00,121,weatherlink.com 1.10,2013-06-22 22:46:00,
2013-06-22 19:01:00,76.6,69.0,29.91,SSE,162,0.0,5.0,77,0.00,,,0.00,100,weatherlink.com 1.10,2013-06-22 23:01:00,
2013-06-22 19:16:00,76.7,70.0,29.91,SSW,192,2.0,5.0,79,0.00,,,0.00,102,weatherlink.com 1.10,2013-06-22 23:16:00,
2013-06-22 19:31:00,77.2,70.0,29.92,South,187,2.0,6.0,78,0.00,,,0.00,111,weatherlink.com 1.10,2013-06-22 23:31:00,
2013-06-22 19:46:00,77.1,70.0,29.91,South,173,3.0,6.0,79,0.00,,,0.00,86,weatherlink.com 1.10,2013-06-22 23:46:00,
2013-06-22 20:01:00,76.9,70.0,29.90,South,170,2.0,6.0,80,0.00,,,0.00,62,weatherlink.com 1.10,2013-06-23 00:01:00,
2013-06-22 20:16:00,76.9,70.0,29.91,SSW,197,4.0,7.0,78,0.00,,,0.00,46,weatherlink.com 1.10,2013-06-23 00:16:00,
2013-06-22 20:31:00,77.5,68.0,29.91,SW,222,5.0,10.0,72,0.00,,,0.00,30,weatherlink.com 1.10,2013-06-23 00:31:00,
2013-06-22 20:46:00,77.3,67.0,29.91,SSW,204,4.0,7.0,71,0.00,,,0.00,21,weatherlink.com 1.10,2013-06-23 00:46:00,
2013-06-22 21:01:00,77.0,67.0,29.93,SW,226,3.0,9.0,70,0.00,,,0.00,19,weatherlink.com 1.10,2013-06-23 01:01:00,
2013-06-22 21:16:00,76.6,66.0,29.92,SW,223,3.0,7.0,69,0.00,,,0.00,5,weatherlink.com 1.10,2013-06-23 01:16:00,
2013-06-22 21:31:00,76.3,66.0,29.93,SW,228,1.0,6.0,70,0.00,,,0.00,0,weatherlink.com 1.10,2013-06-23 01:31:00,
2013-06-22 21:46:00,75.7,66.0,29.94,SW,218,2.0,6.0,71,0.00,,,0.00,0,weatherlink.com 1.10,2013-06-23 01:46:00,
2013-06-22 22:01:00,75.2,66.0,29.94,SW,220,2.0,5.0,72,0.00,,,0.00,0,weatherlink.com 1.10,2013-06-23 02:01:00,
2013-06-22 22:16:00,74.5,66.0,29.94,SW,218,1.0,5.0,74,0.00,,,0.00,0,weatherlink.com 1.10,2013-06-23 02:16:00,
2013-06-22 22:31:00,74.0,66.0,29.94,SW,218,2.0,4.0,75,0.00,,,0.00,0,weatherlink.com 1.10,2013-06-23 02:31:00,
2013-06-22 22:46:00,73.4,66.0,29.95,SSW,212,5.0,10.0,77,0.00,,,0.00,0,weatherlink.com 1.10,2013-06-23 02:46:00,
2013-06-22 23:01:00,73.3,66.0,29.95,SW,222,4.0,9.0,77,0.00,,,0.00,0,weatherlink.com 1.10,2013-06-23 03:01:00,
2013-06-22 23:16:00,73.0,66.0,29.95,SW,225,3.0,6.0,78,0.00,,,0.00,0,weatherlink.com 1.10,2013-06-23 03:16:00,
2013-06-22 23:31:00,72.5,65.0,29.95,SW,230,2.0,6.0,78,0.00,,,0.00,0,weatherlink.com 1.10,2013-06-23 03:31:00,
2013-06-22 23:46:00,72.3,65.0,29.96,SW,235,2.0,8.0,78,0.00,,,0.00,0,weatherlink.com 1.10,2013-06-23 03:46:00,